Time;durP1;ratioP1;P1;durP2;ratioP2;P2;SDS_P1;SDS_P2;PMS_P1;PMS_P2;Temp;Humidity;BMP_temperature;BMP_pressure;BME280_temperature;BME280_humidity;BME280_pressure;Samples;Min_cycle;Max_cycle;Signal;HPM_P1;HPM_P2
2021/11/05 00:02:04;;;;;;;3.40;0.63;;;;;;;;;;5054727;28;20041;-62
2021/11/05 00:04:29;;;;;;;1.40;0.50;;;;;;;;;;5055128;28;20518;-63
2021/11/05 00:06:55;;;;;;;3.75;0.38;;;;;;;;;;5053540;28;20262;-62
2021/11/05 00:09:20;;;;;;;0.30;0.20;;;;;;;;;;5055210;28;20029;-62
2021/11/05 00:11:45;;;;;;;0.68;0.17;;;;;;;;;;5054902;28;20055;-62
2021/11/05 00:14:10;;;;;;;0.43;0.10;;;;;;;;;;5055036;28;20096;-62
2021/11/05 00:16:37;;;;;;;2.45;0.20;;;;;;;;;;5054775;28;20478;-62
2021/11/05 00:19:02;;;;;;;0.90;0.20;;;;;;;;;;5054668;28;20056;-62
2021/11/05 00:21:27;;;;;;;0.68;0.10;;;;;;;;;;5053734;28;20056;-62
2021/11/05 00:23:52;;;;;;;2.75;0.25;;;;;;;;;;5054483;28;20020;-62
2021/11/05 00:26:18;;;;;;;0.85;0.03;;;;;;;;;;5054842;28;20017;-62
2021/11/05 00:28:43;;;;;;;1.20;0.30;;;;;;;;;;5054650;28;20021;-62
2021/11/05 00:31:08;;;;;;;1.95;0.20;;;;;;;;;;5054799;28;20261;-62
2021/11/05 00:33:34;;;;;;;1.30;0.10;;;;;;;;;;5054389;28;20478;-62
2021/11/05 00:35:59;;;;;;;0.73;0.10;;;;;;;;;;5054507;28;20040;-62
2021/11/05 00:38:24;;;;;;;0.93;0.20;;;;;;;;;;5054609;28;20021;-62
2021/11/05 00:40:50;;;;;;;1.17;0.40;;;;;;;;;;5053978;28;20045;-62
2021/11/05 00:43:15;;;;;;;1.85;0.20;;;;;;;;;;5053652;28;20028;-62
2021/11/05 00:45:40;;;;;;;1.45;0.40;;;;;;;;;;5054158;28;20581;-62
2021/11/05 00:48:05;;;;;;;1.17;0.30;;;;;;;;;;5054413;28;20021;-63
2021/11/05 00:50:31;;;;;;;1.95;0.60;;;;;;;;;;5054462;28;20023;-62
2021/11/05 00:52:56;;;;;;;1.70;0.17;;;;;;;;;;5053994;28;20035;-62
2021/11/05 00:55:22;;;;;;;2.05;0.20;;;;;;;;;;5054175;28;20025;-62
2021/11/05 00:57:47;;;;;;;0.32;0.20;;;;;;;;;;5054002;28;20033;-62
2021/11/05 01:00:14;;;;;;;1.75;0.68;;;;;;;;;;5052807;28;20037;-62
2021/11/05 01:02:39;;;;;;;0.80;0.20;;;;;;;;;;5053755;28;20391;-62
2021/11/05 01:05:05;;;;;;;1.42;0.17;;;;;;;;;;5053829;28;20029;-62
2021/11/05 01:07:30;;;;;;;1.73;0.30;;;;;;;;;;5053954;28;20100;-63
2021/11/05 01:09:55;;;;;;;2.15;0.30;;;;;;;;;;5053885;28;20028;-63
2021/11/05 01:12:21;;;;;;;0.90;0.13;;;;;;;;;;5053823;28;20032;-62
2021/11/05 01:14:46;;;;;;;1.15;0.30;;;;;;;;;;5053442;28;20349;-62
2021/11/05 01:17:12;;;;;;;2.70;0.10;;;;;;;;;;5053953;28;20027;-62
2021/11/05 01:19:37;;;;;;;1.45;0.10;;;;;;;;;;5053706;28;20067;-62
2021/11/05 01:22:02;;;;;;;2.38;0.20;;;;;;;;;;5053282;28;20052;-62
2021/11/05 01:24:28;;;;;;;0.20;0.13;;;;;;;;;;5053827;28;20012;-62
2021/11/05 01:26:53;;;;;;;0.20;0.10;;;;;;;;;;5053606;28;20025;-62
2021/11/05 01:29:18;;;;;;;0.57;0.10;;;;;;;;;;5053477;28;20029;-63
2021/11/05 01:31:43;;;;;;;3.10;0.43;;;;;;;;;;5053485;28;20518;-62
2021/11/05 01:34:09;;;;;;;0.40;0.20;;;;;;;;;;5053382;28;20246;-62
2021/11/05 01:36:34;;;;;;;1.05;0.52;;;;;;;;;;5053488;28;20017;-62
2021/11/05 01:39:00;;;;;;;0.95;0.10;;;;;;;;;;5053278;28;20395;-62
2021/11/05 01:41:26;;;;;;;2.33;0.40;;;;;;;;;;5053461;28;20020;-62
2021/11/05 01:43:51;;;;;;;1.27;0.17;;;;;;;;;;5053112;28;20361;-62
2021/11/05 01:46:20;;;;;;;2.10;0.20;;;;;;;;;;5053426;28;20028;-63
2021/11/05 01:48:45;;;;;;;1.48;0.20;;;;;;;;;;5053371;28;20049;-63
2021/11/05 01:51:11;;;;;;;0.35;0.10;;;;;;;;;;5053186;28;20107;-62
2021/11/05 01:53:36;;;;;;;1.80;0.40;;;;;;;;;;5052740;28;20039;-62
2021/11/05 01:56:02;;;;;;;0.80;0.27;;;;;;;;;;5052886;28;20087;-62
2021/11/05 01:58:27;;;;;;;1.65;0.20;;;;;;;;;;5051960;28;20258;-62
2021/11/05 02:00:52;;;;;;;1.90;0.40;;;;;;;;;;5053060;28;20108;-62
2021/11/05 02:03:18;;;;;;;0.98;0.40;;;;;;;;;;5052671;28;20057;-62
2021/11/05 02:05:44;;;;;;;1.25;0.05;;;;;;;;;;5053586;28;20029;-62
2021/11/05 02:08:11;;;;;;;1.65;0.30;;;;;;;;;;5053068;28;20036;-62
2021/11/05 02:10:37;;;;;;;0.98;0.28;;;;;;;;;;5053064;28;20040;-63
2021/11/05 02:13:02;;;;;;;1.35;0.13;;;;;;;;;;5053082;28;20017;-63
2021/11/05 02:15:28;;;;;;;1.30;0.10;;;;;;;;;;5053140;28;20464;-62
2021/11/05 02:17:53;;;;;;;2.13;0.20;;;;;;;;;;5052957;28;20488;-62
2021/11/05 02:20:22;;;;;;;2.10;0.50;;;;;;;;;;5053266;28;20104;-62
2021/11/05 02:22:47;;;;;;;2.50;0.50;;;;;;;;;;5052588;28;20025;-62
2021/11/05 02:25:15;;;;;;;0.80;0.10;;;;;;;;;;5053000;28;20062;-62
2021/11/05 02:27:40;;;;;;;0.98;0.17;;;;;;;;;;5052841;28;20017;-62
2021/11/05 02:30:07;;;;;;;0.70;0.30;;;;;;;;;;5052941;28;20067;-63
2021/11/05 02:32:33;;;;;;;1.60;0.30;;;;;;;;;;5052928;28;20036;-63
2021/11/05 02:34:59;;;;;;;1.63;0.28;;;;;;;;;;5052759;28;20036;-62
2021/11/05 02:37:25;;;;;;;1.70;0.20;;;;;;;;;;5052934;28;20020;-62
2021/11/05 02:39:50;;;;;;;1.25;0.10;;;;;;;;;;5032858;28;20251;-62
2021/11/05 02:42:16;;;;;;;1.00;0.43;;;;;;;;;;5032639;28;20484;-62
2021/11/05 02:44:41;;;;;;;2.95;0.10;;;;;;;;;;5032706;28;20100;-62
2021/11/05 02:47:24;;;;;;;1.13;0.13;;;;;;;;;;5032860;28;20025;-62
2021/11/05 02:49:50;;;;;;;1.67;0.20;;;;;;;;;;5032641;28;20028;-62
2021/11/05 02:52:15;;;;;;;0.80;0.30;;;;;;;;;;5032889;28;20017;-63
2021/11/05 02:54:41;;;;;;;2.92;0.20;;;;;;;;;;5032641;28;20060;-62
2021/11/05 02:57:06;;;;;;;0.43;0.22;;;;;;;;;;5032845;28;20026;-62
2021/11/05 02:59:31;;;;;;;1.20;0.20;;;;;;;;;;5032805;28;20029;-62
2021/11/05 03:01:56;;;;;;;1.90;0.30;;;;;;;;;;5032345;28;20579;-62
2021/11/05 03:04:22;;;;;;;0.57;0.10;;;;;;;;;;5032494;28;20415;-62
2021/11/05 03:06:48;;;;;;;0.75;0.17;;;;;;;;;;5036031;28;20022;-62
2021/11/05 03:09:14;;;;;;;0.95;0.10;;;;;;;;;;5036447;28;20375;-62
2021/11/05 03:11:40;;;;;;;0.95;0.10;;;;;;;;;;5036259;28;20022;-63
2021/11/05 03:14:05;;;;;;;0.45;0.10;;;;;;;;;;5036409;28;20502;-62
2021/11/05 03:16:31;;;;;;;2.97;1.10;;;;;;;;;;5036350;28;20021;-62
2021/11/05 03:18:56;;;;;;;2.00;0.40;;;;;;;;;;5036048;28;20013;-62
2021/11/05 03:21:21;;;;;;;0.35;0.17;;;;;;;;;;5035984;28;20513;-62
2021/11/05 03:23:46;;;;;;;1.55;0.10;;;;;;;;;;5035752;28;20026;-62
2021/11/05 03:26:12;;;;;;;1.25;0.10;;;;;;;;;;5036114;28;20120;-62
2021/11/05 03:28:37;;;;;;;1.17;0.20;;;;;;;;;;5036018;28;20022;-62
2021/11/05 03:31:03;;;;;;;1.75;0.20;;;;;;;;;;5035873;28;20695;-62
2021/11/05 03:33:28;;;;;;;3.55;0.40;;;;;;;;;;5035912;28;20091;-62
2021/11/05 03:35:54;;;;;;;2.05;0.20;;;;;;;;;;5035720;28;20025;-62
2021/11/05 03:38:19;;;;;;;0.55;0.30;;;;;;;;;;5043243;28;20040;-63
2021/11/05 03:40:44;;;;;;;1.50;0.30;;;;;;;;;;5055488;28;20025;-62
2021/11/05 03:43:10;;;;;;;0.40;0.10;;;;;;;;;;5055513;28;20029;-62
2021/11/05 03:45:35;;;;;;;1.10;0.28;;;;;;;;;;5055684;28;20063;-62
2021/11/05 03:48:00;;;;;;;1.85;0.30;;;;;;;;;;5055473;28;20017;-62
2021/11/05 03:50:25;;;;;;;0.47;0.15;;;;;;;;;;5055599;28;20104;-62
2021/11/05 03:52:50;;;;;;;0.85;0.15;;;;;;;;;;5055258;28;20356;-62
2021/11/05 03:55:16;;;;;;;1.75;0.10;;;;;;;;;;5055400;28;20021;-62
2021/11/05 03:57:41;;;;;;;0.73;0.10;;;;;;;;;;5055350;28;20039;-62
2021/11/05 04:00:08;;;;;;;0.98;0.43;;;;;;;;;;5055254;28;20059;-62
2021/11/05 04:02:33;;;;;;;2.50;0.22;;;;;;;;;;5054998;28;20044;-62
2021/11/05 04:04:58;;;;;;;2.10;0.20;;;;;;;;;;5055082;28;20021;-63
2021/11/05 04:07:23;;;;;;;0.33;0.17;;;;;;;;;;5055248;28;20242;-63
2021/11/05 04:09:49;;;;;;;1.63;0.20;;;;;;;;;;5054967;28;20847;-62
2021/11/05 04:12:15;;;;;;;0.70;0.20;;;;;;;;;;5055208;28;20526;-62
2021/11/05 04:14:41;;;;;;;2.80;0.30;;;;;;;;;;5054694;28;20025;-62
2021/11/05 04:17:06;;;;;;;2.08;0.10;;;;;;;;;;5054790;28;20047;-61
2021/11/05 04:19:31;;;;;;;0.77;0.10;;;;;;;;;;5055034;28;20029;-62
2021/11/05 04:21:57;;;;;;;0.88;0.10;;;;;;;;;;5054882;28;20067;-62
2021/11/05 04:24:22;;;;;;;1.33;0.17;;;;;;;;;;5054951;28;20427;-62
2021/11/05 04:26:47;;;;;;;0.98;0.20;;;;;;;;;;5054483;28;20693;-62
2021/11/05 04:29:12;;;;;;;1.00;0.17;;;;;;;;;;5054825;28;20017;-62
2021/11/05 04:31:38;;;;;;;1.23;0.30;;;;;;;;;;5054828;28;20035;-63
2021/11/05 04:34:03;;;;;;;1.25;0.20;;;;;;;;;;5053375;28;20027;-63
2021/11/05 04:36:29;;;;;;;3.33;0.17;;;;;;;;;;5054462;28;20009;-62
2021/11/05 04:38:54;;;;;;;0.88;0.15;;;;;;;;;;5054401;28;20017;-62
2021/11/05 04:41:20;;;;;;;1.27;0.10;;;;;;;;;;5054636;28;20027;-62
2021/11/05 04:43:46;;;;;;;0.52;0.10;;;;;;;;;;5054223;28;20025;-62
2021/11/05 04:46:11;;;;;;;0.32;0.20;;;;;;;;;;5054396;28;20059;-62
2021/11/05 04:48:36;;;;;;;0.88;0.17;;;;;;;;;;5054174;28;20075;-62
2021/11/05 04:51:02;;;;;;;3.00;0.50;;;;;;;;;;5054275;28;20028;-62
2021/11/05 04:53:27;;;;;;;1.75;0.10;;;;;;;;;;5054584;28;20091;-63
2021/11/05 04:55:52;;;;;;;2.50;0.20;;;;;;;;;;5054099;28;20017;-63
2021/11/05 04:58:17;;;;;;;1.35;0.10;;;;;;;;;;5054355;28;20642;-62
2021/11/05 05:00:43;;;;;;;0.52;0.10;;;;;;;;;;5054147;28;20467;-63
2021/11/05 05:03:08;;;;;;;1.58;0.10;;;;;;;;;;5054044;28;20041;-63
2021/11/05 05:05:34;;;;;;;0.20;0.05;;;;;;;;;;5053983;28;20025;-63
2021/11/05 05:07:59;;;;;;;0.82;0.10;;;;;;;;;;5054018;28;20027;-63
2021/11/05 05:10:25;;;;;;;0.57;0.10;;;;;;;;;;5053975;28;20024;-62
2021/11/05 05:12:51;;;;;;;0.30;0.10;;;;;;;;;;5053726;28;20021;-62
2021/11/05 05:15:16;;;;;;;1.98;0.10;;;;;;;;;;5054052;28;20028;-62
2021/11/05 05:17:42;;;;;;;0.65;0.10;;;;;;;;;;5053810;28;20021;-63
2021/11/05 05:20:09;;;;;;;0.55;0.10;;;;;;;;;;5053506;28;20025;-63
2021/11/05 05:22:36;;;;;;;1.02;0.10;;;;;;;;;;5053746;28;20119;-63
2021/11/05 05:25:01;;;;;;;1.17;0.10;;;;;;;;;;5053376;28;20436;-63
2021/11/05 05:27:26;;;;;;;2.85;0.30;;;;;;;;;;5052982;28;20050;-62
2021/11/05 05:29:51;;;;;;;1.17;0.30;;;;;;;;;;5053503;28;20371;-62
2021/11/05 05:32:16;;;;;;;0.05;0.00;;;;;;;;;;5053677;28;20250;-62
2021/11/05 05:34:42;;;;;;;1.10;0.10;;;;;;;;;;5053575;28;20021;-61
2021/11/05 05:37:07;;;;;;;0.85;0.20;;;;;;;;;;5053626;28;20713;-62
2021/11/05 05:39:33;;;;;;;0.97;0.13;;;;;;;;;;5053559;28;20375;-62
2021/11/05 05:41:58;;;;;;;1.92;0.30;;;;;;;;;;5053107;28;20281;-62
2021/11/05 05:44:23;;;;;;;1.02;0.10;;;;;;;;;;5053570;28;20092;-62
2021/11/05 05:46:49;;;;;;;0.53;0.17;;;;;;;;;;5053255;28;20021;-63
2021/11/05 05:49:14;;;;;;;0.75;0.30;;;;;;;;;;5053505;28;20256;-62
2021/11/05 05:51:40;;;;;;;1.55;0.28;;;;;;;;;;5053045;28;20025;-63
2021/11/05 05:54:05;;;;;;;2.10;0.10;;;;;;;;;;5053210;28;20472;-62
2021/11/05 05:56:30;;;;;;;0.88;0.40;;;;;;;;;;5053187;28;20498;-62
2021/11/05 05:58:55;;;;;;;1.20;0.10;;;;;;;;;;5053154;28;20434;-62
2021/11/05 06:01:21;;;;;;;0.90;0.40;;;;;;;;;;5052973;28;20025;-62
2021/11/05 06:03:46;;;;;;;0.40;0.05;;;;;;;;;;5052867;28;20033;-62
2021/11/05 06:06:11;;;;;;;1.17;0.17;;;;;;;;;;5053141;28;20016;-62
2021/11/05 06:08:37;;;;;;;1.45;0.13;;;;;;;;;;5053009;28;20020;-62
2021/11/05 06:11:02;;;;;;;1.17;0.20;;;;;;;;;;5052872;28;20025;-62
2021/11/05 06:13:28;;;;;;;1.38;0.15;;;;;;;;;;5053025;28;20029;-63
2021/11/05 06:15:54;;;;;;;1.58;0.10;;;;;;;;;;5052682;28;20019;-62
2021/11/05 06:18:19;;;;;;;0.52;0.10;;;;;;;;;;5053218;28;20025;-63
2021/11/05 06:20:44;;;;;;;0.52;0.10;;;;;;;;;;5052711;28;20155;-62
2021/11/05 06:23:10;;;;;;;1.00;0.10;;;;;;;;;;5052892;28;20480;-62
2021/11/05 06:25:35;;;;;;;0.68;0.10;;;;;;;;;;5052767;28;20250;-62
2021/11/05 06:28:00;;;;;;;1.38;0.30;;;;;;;;;;5052692;28;20439;-62
2021/11/05 06:30:25;;;;;;;1.00;0.10;;;;;;;;;;5053294;28;20016;-62
2021/11/05 06:32:51;;;;;;;1.95;0.10;;;;;;;;;;5052345;28;20286;-62
2021/11/05 06:35:16;;;;;;;2.03;0.10;;;;;;;;;;5053025;28;20044;-62
2021/11/05 06:37:42;;;;;;;0.60;0.30;;;;;;;;;;5052648;28;20400;-62
2021/11/05 06:40:10;;;;;;;1.88;0.30;;;;;;;;;;5055779;28;20058;-63
2021/11/05 06:42:35;;;;;;;0.95;0.10;;;;;;;;;;5056704;28;20045;-62
2021/11/05 06:45:00;;;;;;;0.30;0.10;;;;;;;;;;5056691;28;20514;-62
2021/11/05 06:47:25;;;;;;;1.67;0.20;;;;;;;;;;5056846;28;20013;-62
2021/11/05 06:49:50;;;;;;;0.47;0.10;;;;;;;;;;5056527;28;20521;-62
2021/11/05 06:52:16;;;;;;;1.23;0.33;;;;;;;;;;5055420;28;20067;-62
2021/11/05 06:54:41;;;;;;;1.40;0.13;;;;;;;;;;5056374;28;20250;-62
2021/11/05 06:57:07;;;;;;;2.35;0.40;;;;;;;;;;5056494;28;20029;-63
2021/11/05 06:59:32;;;;;;;0.93;0.30;;;;;;;;;;5056558;28;20455;-62
2021/11/05 07:01:58;;;;;;;0.90;0.17;;;;;;;;;;5055894;28;20041;-62
2021/11/05 07:04:23;;;;;;;0.93;0.20;;;;;;;;;;5056454;28;20028;-62
2021/11/05 07:06:48;;;;;;;0.85;0.20;;;;;;;;;;5056094;28;20246;-63
2021/11/05 07:09:14;;;;;;;1.73;0.13;;;;;;;;;;5056422;28;20017;-62
2021/11/05 07:11:40;;;;;;;1.75;0.32;;;;;;;;;;5056044;28;20025;-62
2021/11/05 07:14:05;;;;;;;2.78;0.38;;;;;;;;;;5056073;28;20023;-62
2021/11/05 07:16:33;;;;;;;0.47;0.10;;;;;;;;;;5056086;28;20092;-62
2021/11/05 07:18:58;;;;;;;1.30;0.20;;;;;;;;;;5056014;28;20510;-63
2021/11/05 07:21:23;;;;;;;1.80;0.22;;;;;;;;;;5056173;28;20061;-62
2021/11/05 07:23:49;;;;;;;1.27;0.10;;;;;;;;;;5055698;28;20032;-62
2021/11/05 07:26:14;;;;;;;1.17;0.10;;;;;;;;;;5056150;28;20448;-62
2021/11/05 07:28:40;;;;;;;0.88;0.32;;;;;;;;;;5055662;28;20025;-62
2021/11/05 07:31:05;;;;;;;2.03;0.10;;;;;;;;;;5055974;28;20032;-62
2021/11/05 07:33:30;;;;;;;0.57;0.03;;;;;;;;;;5055570;28;20471;-62
2021/11/05 07:35:56;;;;;;;0.20;0.00;;;;;;;;;;5055917;28;20044;-61
2021/11/05 07:38:21;;;;;;;2.13;0.60;;;;;;;;;;5055716;28;20384;-62
2021/11/05 07:40:46;;;;;;;1.20;0.15;;;;;;;;;;5055326;28;20731;-62
2021/11/05 07:43:11;;;;;;;0.93;0.20;;;;;;;;;;5055593;28;20363;-62
2021/11/05 07:45:37;;;;;;;1.48;0.60;;;;;;;;;;5055682;28;20031;-62
2021/11/05 07:48:02;;;;;;;2.20;0.40;;;;;;;;;;5055548;28;20024;-62
2021/11/05 07:50:33;;;;;;;1.00;0.20;;;;;;;;;;5054742;28;20017;-62
2021/11/05 07:52:59;;;;;;;1.13;0.10;;;;;;;;;;5055493;28;20428;-62
2021/11/05 07:55:25;;;;;;;0.73;0.10;;;;;;;;;;5055110;28;20056;-62
2021/11/05 07:57:51;;;;;;;1.52;0.10;;;;;;;;;;5036534;28;20049;-62
2021/11/05 08:00:16;;;;;;;1.63;0.20;;;;;;;;;;5048236;28;20052;-62
2021/11/05 08:02:42;;;;;;;1.15;0.30;;;;;;;;;;5052181;28;20079;-62
2021/11/05 08:05:09;;;;;;;1.85;0.20;;;;;;;;;;5038775;28;20025;-62
2021/11/05 08:07:34;;;;;;;1.38;0.10;;;;;;;;;;5038383;28;20009;-62
2021/11/05 08:09:59;;;;;;;0.38;0.10;;;;;;;;;;5055144;28;20025;-63
2021/11/05 08:12:24;;;;;;;3.47;0.20;;;;;;;;;;5055232;28;20017;-62
2021/11/05 08:14:50;;;;;;;1.45;0.22;;;;;;;;;;5054972;28;20479;-62
2021/11/05 08:17:15;;;;;;;1.38;0.22;;;;;;;;;;5054398;28;20468;-62
2021/11/05 08:19:40;;;;;;;0.35;0.10;;;;;;;;;;5053228;28;20029;-62
2021/11/05 08:22:06;;;;;;;3.08;0.20;;;;;;;;;;5050443;28;20029;-62
2021/11/05 08:24:31;;;;;;;0.50;0.10;;;;;;;;;;5034859;28;20021;-62
2021/11/05 08:26:57;;;;;;;2.28;0.20;;;;;;;;;;5045167;28;20021;-62
2021/11/05 08:29:22;;;;;;;1.98;0.20;;;;;;;;;;5050591;28;20017;-62
2021/11/05 08:31:48;;;;;;;0.30;0.00;;;;;;;;;;5034686;28;20026;-62
2021/11/05 08:34:14;;;;;;;0.95;0.20;;;;;;;;;;5037456;28;20097;-62
2021/11/05 08:36:39;;;;;;;1.98;0.55;;;;;;;;;;5045206;28;20441;-63
2021/11/05 08:39:05;;;;;;;0.85;0.40;;;;;;;;;;5050463;28;20031;-63
2021/11/05 08:41:30;;;;;;;1.40;0.20;;;;;;;;;;5054707;28;20025;-63
2021/11/05 08:43:56;;;;;;;0.85;0.17;;;;;;;;;;5053895;28;20060;-63
2021/11/05 08:46:22;;;;;;;0.55;0.10;;;;;;;;;;5054448;28;20021;-62
2021/11/05 08:49:01;;;;;;;1.30;0.10;;;;;;;;;;5035787;28;20025;-62
2021/11/05 08:51:27;;;;;;;0.20;0.20;;;;;;;;;;5034533;28;20021;-62
2021/11/05 08:53:53;;;;;;;0.25;0.08;;;;;;;;;;5034248;28;20028;-62
2021/11/05 08:56:18;;;;;;;1.23;0.30;;;;;;;;;;5035484;28;20045;-62
2021/11/05 08:58:44;;;;;;;0.75;0.30;;;;;;;;;;5036356;28;20033;-63
2021/11/05 09:01:09;;;;;;;3.67;0.10;;;;;;;;;;5034159;28;20033;-62
2021/11/05 09:03:35;;;;;;;1.42;0.10;;;;;;;;;;5040241;28;20521;-62
2021/11/05 09:06:00;;;;;;;1.08;0.20;;;;;;;;;;5053843;28;20036;-62
2021/11/05 09:08:29;;;;;;;0.73;0.17;;;;;;;;;;5050731;28;20368;-62
2021/11/05 09:10:55;;;;;;;1.00;0.10;;;;;;;;;;5053769;28;20367;-62
2021/11/05 09:13:20;;;;;;;0.45;0.10;;;;;;;;;;5050320;28;20028;-61
2021/11/05 09:15:46;;;;;;;1.33;0.10;;;;;;;;;;5053389;28;20112;-62
2021/11/05 09:18:11;;;;;;;0.75;0.20;;;;;;;;;;5038108;28;20266;-62
2021/11/05 09:20:37;;;;;;;1.98;0.13;;;;;;;;;;5033347;28;20468;-62
2021/11/05 09:23:02;;;;;;;1.33;0.60;;;;;;;;;;5033417;28;20017;-62
2021/11/05 09:25:27;;;;;;;0.47;0.40;;;;;;;;;;5033521;28;20064;-62
2021/11/05 09:27:53;;;;;;;2.47;0.28;;;;;;;;;;5033083;28;20060;-61
2021/11/05 09:30:21;;;;;;;2.20;0.60;;;;;;;;;;5040515;28;20067;-62
2021/11/05 09:32:47;;;;;;;1.35;0.20;;;;;;;;;;5053088;28;20543;-62
2021/11/05 09:35:12;;;;;;;1.88;0.45;;;;;;;;;;5053659;28;20099;-62
2021/11/05 09:37:38;;;;;;;0.15;0.00;;;;;;;;;;5053407;28;20101;-61
2021/11/05 09:40:05;;;;;;;1.48;0.20;;;;;;;;;;5053271;28;20017;-61
2021/11/05 09:42:31;;;;;;;2.80;0.15;;;;;;;;;;5053228;28;20439;-62
2021/11/05 09:44:57;;;;;;;1.42;0.17;;;;;;;;;;5053210;28;20096;-62
2021/11/05 09:47:22;;;;;;;1.75;0.20;;;;;;;;;;5053478;28;20021;-62
2021/11/05 09:49:47;;;;;;;0.70;0.00;;;;;;;;;;5053168;28;20017;-62
2021/11/05 09:52:12;;;;;;;2.17;0.20;;;;;;;;;;5053322;28;20399;-62
2021/11/05 09:54:39;;;;;;;2.53;0.20;;;;;;;;;;5053260;28;20151;-62
2021/11/05 09:57:04;;;;;;;0.38;0.20;;;;;;;;;;5053307;28;20257;-62
2021/11/05 09:59:30;;;;;;;1.85;0.30;;;;;;;;;;5053286;28;20033;-62
2021/11/05 10:01:55;;;;;;;3.35;0.47;;;;;;;;;;5052532;28;20035;-61
2021/11/05 10:04:20;;;;;;;0.27;0.03;;;;;;;;;;5053329;28;20024;-62
2021/11/05 10:07:02;;;;;;;2.10;0.40;;;;;;;;;;5052718;28;20250;-62
2021/11/05 10:09:35;;;;;;;1.20;0.38;;;;;;;;;;5053068;28;20811;-62
2021/11/05 10:12:06;;;;;;;1.00;0.10;;;;;;;;;;5052886;28;20029;-62
2021/11/05 10:14:32;;;;;;;1.25;0.10;;;;;;;;;;5052701;28;20047;-62
2021/11/05 10:16:58;;;;;;;2.28;0.30;;;;;;;;;;5053016;28;20375;-62
2021/11/05 10:19:23;;;;;;;1.13;0.10;;;;;;;;;;5053082;28;20024;-61
2021/11/05 10:21:49;;;;;;;0.45;0.10;;;;;;;;;;5052754;28;20021;-62
2021/11/05 10:24:15;;;;;;;0.90;0.10;;;;;;;;;;5053112;28;20103;-62
2021/11/05 10:26:41;;;;;;;2.28;0.30;;;;;;;;;;5052860;28;20017;-62
2021/11/05 10:29:07;;;;;;;1.05;0.30;;;;;;;;;;5053056;28;20021;-62
2021/11/05 10:31:33;;;;;;;1.48;0.10;;;;;;;;;;5053052;28;20009;-62
2021/11/05 10:33:58;;;;;;;2.47;0.50;;;;;;;;;;5052784;28;20035;-62
2021/11/05 10:36:24;;;;;;;2.83;0.52;;;;;;;;;;5052689;28;20100;-62
2021/11/05 10:38:50;;;;;;;1.15;0.22;;;;;;;;;;5052595;28;20016;-61
2021/11/05 10:41:17;;;;;;;0.40;0.10;;;;;;;;;;5052825;28;20100;-61
2021/11/05 10:43:44;;;;;;;3.33;0.30;;;;;;;;;;5052424;28;20025;-61
2021/11/05 10:46:25;;;;;;;1.65;0.32;;;;;;;;;;5052782;28;20407;-62
2021/11/05 10:48:51;;;;;;;0.90;0.30;;;;;;;;;;5052680;28;20056;-62
2021/11/05 10:51:19;;;;;;;2.53;0.50;;;;;;;;;;5052747;28;20021;-62
2021/11/05 10:53:44;;;;;;;1.75;0.20;;;;;;;;;;5052561;28;20032;-62
2021/11/05 10:56:13;;;;;;;1.00;0.30;;;;;;;;;;5052509;28;20021;-61
2021/11/05 10:58:42;;;;;;;1.25;0.20;;;;;;;;;;5052677;28;20102;-61
2021/11/05 11:01:11;;;;;;;1.00;0.30;;;;;;;;;;5052510;28;20021;-62
2021/11/05 11:03:38;;;;;;;1.27;0.10;;;;;;;;;;5052627;28;20017;-62
2021/11/05 11:06:03;;;;;;;0.85;0.15;;;;;;;;;;5052449;28;20024;-62
2021/11/05 11:08:32;;;;;;;1.30;0.40;;;;;;;;;;5052698;28;20017;-62
2021/11/05 11:10:58;;;;;;;1.13;0.65;;;;;;;;;;5052209;28;20013;-62
2021/11/05 11:13:28;;;;;;;1.15;0.30;;;;;;;;;;5052738;28;20098;-62
2021/11/05 11:15:53;;;;;;;0.43;0.10;;;;;;;;;;5052115;28;20096;-62
2021/11/05 11:18:18;;;;;;;0.85;0.10;;;;;;;;;;5052515;28;20113;-62
2021/11/05 11:20:43;;;;;;;0.90;0.25;;;;;;;;;;5052201;28;20468;-62
2021/11/05 11:23:09;;;;;;;0.45;0.10;;;;;;;;;;5052324;28;20518;-62
2021/11/05 11:25:36;;;;;;;2.15;0.10;;;;;;;;;;5052664;28;20025;-62
2021/11/05 11:28:01;;;;;;;1.35;0.13;;;;;;;;;;5055729;28;20598;-62
2021/11/05 11:30:26;;;;;;;0.70;0.30;;;;;;;;;;5056392;28;20092;-62
2021/11/05 11:32:51;;;;;;;1.92;0.25;;;;;;;;;;5055481;28;20059;-62
2021/11/05 11:35:17;;;;;;;0.52;0.10;;;;;;;;;;5055963;28;20025;-62
2021/11/05 11:37:42;;;;;;;1.15;0.20;;;;;;;;;;5055401;28;20518;-62
2021/11/05 11:40:08;;;;;;;1.40;0.32;;;;;;;;;;5055773;28;20056;-61
2021/11/05 11:42:34;;;;;;;2.10;0.30;;;;;;;;;;5055449;28;20017;-62
2021/11/05 11:45:00;;;;;;;0.57;0.10;;;;;;;;;;5055580;28;20020;-62
2021/11/05 11:47:25;;;;;;;1.50;0.22;;;;;;;;;;5055724;28;20088;-62
2021/11/05 11:49:51;;;;;;;1.23;0.10;;;;;;;;;;5055510;28;20103;-62
2021/11/05 11:52:19;;;;;;;2.80;0.65;;;;;;;;;;5055450;28;20021;-61
2021/11/05 11:54:45;;;;;;;1.92;0.13;;;;;;;;;;5055436;28;20559;-62
2021/11/05 11:57:17;;;;;;;1.23;0.10;;;;;;;;;;5055265;28;20108;-62
2021/11/05 11:59:43;;;;;;;0.38;0.10;;;;;;;;;;5055447;28;20032;-62
2021/11/05 12:02:27;;;;;;;0.85;0.10;;;;;;;;;;5054989;28;20045;-62
2021/11/05 12:04:53;;;;;;;2.97;0.45;;;;;;;;;;5055112;28;20482;-62
2021/11/05 12:07:18;;;;;;;1.23;0.17;;;;;;;;;;5055346;28;20029;-62
2021/11/05 12:09:43;;;;;;;1.02;0.10;;;;;;;;;;5055079;28;20469;-62
2021/11/05 12:12:35;;;;;;;1.38;0.20;;;;;;;;;;5055246;28;20092;-62
2021/11/05 12:15:00;;;;;;;1.15;0.10;;;;;;;;;;5053592;28;20044;-62
2021/11/05 12:17:28;;;;;;;2.83;0.50;;;;;;;;;;5055187;28;20021;-62
2021/11/05 12:20:01;;;;;;;1.02;0.20;;;;;;;;;;5054763;28;20025;-61
2021/11/05 12:22:27;;;;;;;0.60;0.22;;;;;;;;;;5055098;28;20025;-62
2021/11/05 12:24:52;;;;;;;2.33;0.20;;;;;;;;;;5054801;28;20037;-62
2021/11/05 12:27:20;;;;;;;1.05;0.10;;;;;;;;;;5055076;28;20506;-61
2021/11/05 12:29:49;;;;;;;0.45;0.20;;;;;;;;;;5054801;28;20129;-62
2021/11/05 12:32:18;;;;;;;1.75;0.20;;;;;;;;;;5054840;28;20059;-62
2021/11/05 12:34:53;;;;;;;1.88;0.10;;;;;;;;;;5054729;28;20075;-62
2021/11/05 12:37:31;;;;;;;0.30;0.10;;;;;;;;;;5054658;28;20017;-62
2021/11/05 12:40:16;;;;;;;1.50;0.17;;;;;;;;;;5034691;28;20013;-61
2021/11/05 12:42:42;;;;;;;1.08;0.20;;;;;;;;;;5034354;28;20072;-63
2021/11/05 12:45:08;;;;;;;0.55;0.10;;;;;;;;;;5034637;28;20017;-62
2021/11/05 12:47:50;;;;;;;1.45;0.10;;;;;;;;;;5034550;28;20025;-62
2021/11/05 12:50:23;;;;;;;0.73;0.13;;;;;;;;;;5034475;28;20013;-62
2021/11/05 12:52:52;;;;;;;1.00;0.22;;;;;;;;;;5034142;28;20025;-62
2021/11/05 12:55:18;;;;;;;0.60;0.13;;;;;;;;;;5034385;28;20024;-62
2021/11/05 12:57:53;;;;;;;3.58;0.35;;;;;;;;;;5034012;28;20399;-61
2021/11/05 13:00:20;;;;;;;0.65;0.32;;;;;;;;;;5034435;28;20021;-62
2021/11/05 13:02:52;;;;;;;1.92;0.52;;;;;;;;;;5033708;28;20042;-62
2021/11/05 13:05:17;;;;;;;1.65;0.10;;;;;;;;;;5034377;28;20071;-62
2021/11/05 13:07:51;;;;;;;1.45;0.30;;;;;;;;;;5033960;28;20017;-61
2021/11/05 13:10:42;;;;;;;2.75;0.30;;;;;;;;;;5034208;28;20021;-62
2021/11/05 13:13:09;;;;;;;0.57;0.10;;;;;;;;;;5032865;28;20029;-63
2021/11/05 13:15:35;;;;;;;0.77;0.10;;;;;;;;;;5033886;28;20480;-62
2021/11/05 13:18:02;;;;;;;1.27;0.15;;;;;;;;;;5033588;28;20029;-62
2021/11/05 13:20:30;;;;;;;1.00;0.10;;;;;;;;;;5033969;28;20167;-62
2021/11/05 13:22:56;;;;;;;1.70;0.20;;;;;;;;;;5033461;28;20412;-62
2021/11/05 13:25:26;;;;;;;0.95;0.15;;;;;;;;;;5033942;28;20026;-61
2021/11/05 13:28:05;;;;;;;0.55;0.08;;;;;;;;;;5033694;28;20025;-61
2021/11/05 13:30:32;;;;;;;1.33;0.10;;;;;;;;;;5033956;28;20021;-62
2021/11/05 13:32:57;;;;;;;1.50;0.20;;;;;;;;;;5033715;28;20040;-62
2021/11/05 13:35:23;;;;;;;1.98;0.20;;;;;;;;;;5033700;28;20484;-62
2021/11/05 13:37:49;;;;;;;1.27;0.10;;;;;;;;;;5036702;28;20016;-62
2021/11/05 13:40:14;;;;;;;0.85;0.15;;;;;;;;;;5053456;28;20506;-62
2021/11/05 13:42:39;;;;;;;0.17;0.05;;;;;;;;;;5053459;28;20021;-62
2021/11/05 13:45:04;;;;;;;1.60;0.28;;;;;;;;;;5053347;28;20028;-62
2021/11/05 13:47:30;;;;;;;1.00;0.10;;;;;;;;;;5053121;28;20669;-62
2021/11/05 13:49:59;;;;;;;0.30;0.10;;;;;;;;;;5052734;28;20242;-61
2021/11/05 13:52:25;;;;;;;1.02;0.15;;;;;;;;;;5053322;28;20472;-62
2021/11/05 13:54:50;;;;;;;0.88;0.10;;;;;;;;;;5052747;28;20029;-62
2021/11/05 13:57:16;;;;;;;1.95;0.50;;;;;;;;;;5053433;28;20051;-62
2021/11/05 13:59:42;;;;;;;1.40;0.20;;;;;;;;;;5052986;28;20433;-62
2021/11/05 14:02:07;;;;;;;1.23;0.25;;;;;;;;;;5052637;28;20072;-62
2021/11/05 14:04:32;;;;;;;2.00;0.20;;;;;;;;;;5053265;28;20024;-62
2021/11/05 14:06:58;;;;;;;0.85;0.10;;;;;;;;;;5052801;28;20020;-62
2021/11/05 14:09:31;;;;;;;1.15;0.20;;;;;;;;;;5053198;28;20036;-61
2021/11/05 14:11:57;;;;;;;0.53;0.10;;;;;;;;;;5053110;28;20488;-61
2021/11/05 14:14:24;;;;;;;0.50;0.10;;;;;;;;;;5052949;28;20028;-62
2021/11/05 14:16:50;;;;;;;1.48;0.10;;;;;;;;;;5052650;28;20032;-62
2021/11/05 14:19:17;;;;;;;0.22;0.08;;;;;;;;;;5053067;28;20511;-62
2021/11/05 14:21:42;;;;;;;2.05;0.65;;;;;;;;;;5043494;28;20395;-62
2021/11/05 14:24:20;;;;;;;1.25;0.20;;;;;;;;;;5040735;28;20025;-62
2021/11/05 14:26:46;;;;;;;1.35;0.10;;;;;;;;;;5038011;28;20067;-62
2021/11/05 14:29:20;;;;;;;0.80;0.10;;;;;;;;;;5045678;28;20028;-62
2021/11/05 14:31:54;;;;;;;0.10;0.00;;;;;;;;;;5044360;28;20013;-61
2021/11/05 14:34:20;;;;;;;0.85;0.30;;;;;;;;;;5040657;28;20021;-62
2021/11/05 14:36:45;;;;;;;0.65;0.10;;;;;;;;;;5052764;28;20016;-62
2021/11/05 14:39:10;;;;;;;0.57;0.13;;;;;;;;;;5039789;28;20123;-62